Wilmington, OH

5:53 PM EDT on August 29, 2015 (GMT -0400)
Little House On The Prairie | | Change Station
CLOSE
Current Station
Personal Weather Station
Location: Wilmington, OH
Elevation: 1043 ft
Nearby Weather Stations

Elev 1043 ft 39.45 °N, 83.82 °W | Updated 23 seconds ago

Clear
Clear
74.1 °F
Feels Like 75 °F
N
3.5
Wind Variable Wind from East
Gusts 3.5 mph

Today
High -- | Low -- °F
--% Chance of Precip.
Yesterday
High -- | Low -- °F
Precip. -- in
7:00 AM 8:11 PM
Full, 100% visible
Pressure 30.05 in
Visibility 10.0 miles
Clouds Clear
Heat Index 75 °F
Dew Point 66 °F
Humidity 76%
Rainfall in
Snow Depth Not available.
UV 4 out of 12
Pollen 10.30 out of 12
Air Quality Not available.
Flu Activity Not available.
METAR KILN 292054Z AUTO 20007KT 10SM CLR 28/17 A3008 RMK AO2 LTG DSNT W SLP176 T02780172 56019
Pressure 30.05 in
Visibility 10.0 miles
Clouds Clear
Heat Index 75 °F
Dew Point 66 °F
Humidity 76%
Rainfall in
Snow Depth Not available.
UV 4 out of 12
Pollen 10.30 out of 12
Air Quality Not available.
Flu Activity Not available.
METAR KILN 292054Z AUTO 20007KT 10SM CLR 28/17 A3008 RMK AO2 LTG DSNT W SLP176 T02780172 56019

10-Day Weather Forecast

×

Almanac

Astronomy

Aug. 29, 2015 Rise Set
Actual Time
Civil Twilight
Nautical Twilight
Astronomical Twilight
Moon
Length of Visible Light
Length of Day
Tomorrow will be .
, % of the Moon is Illuminated

Today's Extremes

State Highs State Lows

Community

WunderPhotos

Upload Photos

1,850,795 photos uploaded!

WunderBlogs® & News

Nearby

Air Quality

  Air Quality AQ Index Pollutant
Not available.

Snow Depth

Station Depth Elevation

Earthquake Activity

City Distance Mag. Time & Date
Minimum magnitude displayed is 2.5.

Coastal Water Temperatures

Place Temperature

Stations

Nearby Weather Stations

Station Location Temp. Windchill Dew Point Humidity Wind Precip. Elev Updated Type